FDX44 LFPG-KMEM
Flight info
| Callsign | FDX44 |
|---|---|
| Flight time | N/A |
| Altitude | 34000 |
| Route | ELCOB UT300 RUBIX DCT SENLO DCT JSY DCT LIZAD DCT LESLU/N0483F320 DCT MALOT/M083F320 DCT 54N020W 54N030W 54N040W 53N050W DCT RIKAL/N0476F340 DCT ANATI DCT POLTY Q804 DERLO DCT WOOST DCT ROD DCT PXV BLUZZ5 |
| Aircraft | B77L/H-SDE1E2E3FGHIJ2J3J4J5M1RWXY/LB1D1 |
Departure
| Time | N/A |
|---|---|
| Airport | Charles de Gaulle International Airport (LFPG) |
Arrival
| Time | 2026-05-04 13:21 |
|---|---|
| Airport | Memphis International Airport (KMEM) |
| Time | Latitude | Longitude | Altitude | Speed | Heading |
|---|---|---|---|---|---|
| 2026-05-04 02:15 | 53.10907 | -49.22794 | 33990 ft | 418 kts | 259° |
| 2026-05-04 02:15 | 53.09610 | -49.32181 | 33992 ft | 414 kts | 259° |
| 2026-05-04 02:16 | 53.08316 | -49.41490 | 33995 ft | 412 kts | 259° |
| 2026-05-04 02:16 | 53.07025 | -49.50721 | 33996 ft | 412 kts | 259° |
| 2026-05-04 02:17 | 53.05716 | -49.60026 | 33988 ft | 413 kts | 259° |
| 2026-05-04 02:17 | 53.04397 | -49.69344 | 33982 ft | 415 kts | 258° |
| 2026-05-04 02:18 | 53.03066 | -49.78686 | 33985 ft | 416 kts | 258° |
| 2026-05-04 02:18 | 53.01727 | -49.88032 | 33975 ft | 416 kts | 258° |
| 2026-05-04 02:19 | 53.00383 | -49.97323 | 33968 ft | 416 kts | 257° |
| 2026-05-04 02:19 | 52.98491 | -50.06420 | 33976 ft | 417 kts | 250° |
| 2026-05-04 02:20 | 52.96312 | -50.15350 | 33958 ft | 417 kts | 250° |
| 2026-05-04 02:20 | 52.94154 | -50.24284 | 33952 ft | 416 kts | 250° |
| 2026-05-04 02:21 | 52.92002 | -50.33183 | 33948 ft | 416 kts | 250° |
| 2026-05-04 02:21 | 52.89842 | -50.42071 | 33947 ft | 415 kts | 250° |
| 2026-05-04 02:22 | 52.87694 | -50.50878 | 33944 ft | 415 kts | 250° |
| 2026-05-04 02:22 | 52.85528 | -50.59719 | 33946 ft | 415 kts | 250° |
| 2026-05-04 02:23 | 52.83353 | -50.68564 | 33942 ft | 414 kts | 250° |
| 2026-05-04 02:23 | 52.81172 | -50.77398 | 33949 ft | 415 kts | 248° |
| 2026-05-04 02:24 | 52.78981 | -50.86233 | 33940 ft | 415 kts | 248° |
| 2026-05-04 02:24 | 52.76781 | -50.95070 | 33929 ft | 416 kts | 248° |
| 2026-05-04 02:25 | 52.74589 | -51.03840 | 33928 ft | 416 kts | 248° |
| 2026-05-04 02:25 | 52.72375 | -51.12663 | 33923 ft | 416 kts | 248° |
| 2026-05-04 02:26 | 52.70153 | -51.21486 | 33916 ft | 417 kts | 247° |
| 2026-05-04 02:26 | 52.67918 | -51.30320 | 33920 ft | 417 kts | 247° |
| 2026-05-04 02:27 | 52.65680 | -51.39134 | 33915 ft | 418 kts | 247° |
| 2026-05-04 02:27 | 52.63430 | -51.47961 | 33912 ft | 418 kts | 247° |
| 2026-05-04 02:28 | 52.61171 | -51.56784 | 33912 ft | 418 kts | 247° |
| 2026-05-04 02:28 | 52.58919 | -51.65552 | 33907 ft | 418 kts | 247° |
| 2026-05-04 02:29 | 52.56647 | -51.74358 | 33900 ft | 419 kts | 246° |
| 2026-05-04 02:29 | 52.54366 | -51.83169 | 33905 ft | 419 kts | 246° |
| 2026-05-04 02:30 | 52.52072 | -51.91992 | 33904 ft | 420 kts | 246° |
| 2026-05-04 02:30 | 52.49770 | -52.00813 | 33904 ft | 420 kts | 246° |
| 2026-05-04 02:31 | 52.47460 | -52.09629 | 33898 ft | 420 kts | 246° |
| 2026-05-04 02:31 | 52.45157 | -52.18383 | 33899 ft | 420 kts | 246° |
| 2026-05-04 02:32 | 52.42835 | -52.27179 | 33893 ft | 421 kts | 246° |
| 2026-05-04 02:32 | 52.40501 | -52.35986 | 33893 ft | 420 kts | 246° |
| 2026-05-04 02:33 | 52.38166 | -52.44759 | 33890 ft | 420 kts | 246° |
| 2026-05-04 02:33 | 52.35824 | -52.53527 | 33890 ft | 420 kts | 246° |
| 2026-05-04 02:34 | 52.33474 | -52.62293 | 33875 ft | 420 kts | 245° |
| 2026-05-04 02:34 | 52.31141 | -52.70960 | 33885 ft | 419 kts | 245° |
| 2026-05-04 02:35 | 52.28788 | -52.79670 | 33885 ft | 419 kts | 245° |
| 2026-05-04 02:35 | 52.26428 | -52.88373 | 33882 ft | 419 kts | 245° |
| 2026-05-04 02:36 | 52.24062 | -52.97064 | 33887 ft | 419 kts | 244° |
| 2026-05-04 02:36 | 52.21689 | -53.05748 | 33879 ft | 419 kts | 244° |
| 2026-05-04 02:37 | 52.19306 | -53.14439 | 33878 ft | 419 kts | 244° |
| 2026-05-04 02:37 | 52.16932 | -53.23061 | 33874 ft | 419 kts | 244° |
| 2026-05-04 02:38 | 52.14537 | -53.31727 | 33874 ft | 419 kts | 244° |
| 2026-05-04 02:38 | 52.12138 | -53.40376 | 33872 ft | 419 kts | 244° |
| 2026-05-04 02:39 | 52.09727 | -53.49037 | 33868 ft | 419 kts | 244° |
| 2026-05-04 02:39 | 52.07328 | -53.57627 | 33867 ft | 419 kts | 243° |
| 2026-05-04 02:40 | 52.04907 | -53.66258 | 33860 ft | 419 kts | 243° |
| 2026-05-04 02:40 | 52.02483 | -53.74870 | 33860 ft | 419 kts | 243° |
| 2026-05-04 02:41 | 52.00068 | -53.83418 | 33860 ft | 419 kts | 243° |
| 2026-05-04 02:41 | 51.97635 | -53.92001 | 33860 ft | 419 kts | 243° |
| 2026-05-04 02:42 | 51.95188 | -54.00600 | 33888 ft | 419 kts | 243° |
| 2026-05-04 02:42 | 51.92738 | -54.09178 | 33863 ft | 419 kts | 242° |
| 2026-05-04 02:43 | 51.90285 | -54.17738 | 33852 ft | 419 kts | 242° |
| 2026-05-04 02:43 | 51.87841 | -54.26235 | 33851 ft | 418 kts | 242° |
| 2026-05-04 02:44 | 51.85375 | -54.34778 | 33844 ft | 418 kts | 242° |
| 2026-05-04 02:44 | 51.82905 | -54.43310 | 33845 ft | 418 kts | 242° |
| 2026-05-04 02:45 | 51.80452 | -54.51823 | 33837 ft | 419 kts | 243° |
| 2026-05-04 02:45 | 51.78579 | -54.60774 | 33850 ft | 422 kts | 249° |
| 2026-05-04 02:46 | 51.76913 | -54.69828 | 33834 ft | 423 kts | 248° |
| 2026-05-04 02:46 | 51.75210 | -54.78913 | 33833 ft | 423 kts | 248° |
| 2026-05-04 02:47 | 51.73496 | -54.87996 | 33833 ft | 423 kts | 248° |
| 2026-05-04 02:47 | 51.71776 | -54.97069 | 33843 ft | 423 kts | 248° |
| 2026-05-04 02:48 | 51.70057 | -55.06103 | 33834 ft | 424 kts | 247° |
| 2026-05-04 02:48 | 51.68314 | -55.15208 | 33830 ft | 425 kts | 247° |
| 2026-05-04 02:49 | 51.66564 | -55.24311 | 33832 ft | 426 kts | 247° |
| 2026-05-04 02:49 | 51.64804 | -55.33427 | 33832 ft | 426 kts | 246° |
| 2026-05-04 02:50 | 51.63332 | -55.41018 | 33826 ft | 427 kts | 246° |
| 2026-05-04 02:50 | 51.61554 | -55.50145 | 33823 ft | 427 kts | 246° |
| 2026-05-04 02:51 | 51.59770 | -55.59260 | 33822 ft | 428 kts | 245° |
| 2026-05-04 02:51 | 51.57974 | -55.68390 | 33815 ft | 429 kts | 245° |
| 2026-05-04 02:52 | 51.56167 | -55.77532 | 33827 ft | 430 kts | 245° |
| 2026-05-04 02:52 | 51.54345 | -55.86709 | 33802 ft | 431 kts | 245° |
| 2026-05-04 02:53 | 51.52514 | -55.95889 | 33789 ft | 432 kts | 245° |
| 2026-05-04 02:53 | 51.50685 | -56.05014 | 33779 ft | 432 kts | 245° |
| 2026-05-04 02:54 | 51.48837 | -56.14197 | 33784 ft | 433 kts | 244° |
| 2026-05-04 02:54 | 51.46974 | -56.23400 | 33781 ft | 434 kts | 244° |
| 2026-05-04 02:55 | 51.44159 | -56.37236 | 33812 ft | 435 kts | 244° |
| 2026-05-04 02:56 | 51.42267 | -56.46478 | 33804 ft | 436 kts | 244° |
| 2026-05-04 02:56 | 51.40371 | -56.55699 | 33843 ft | 436 kts | 244° |
| 2026-05-04 02:57 | 51.38476 | -56.64872 | 33815 ft | 437 kts | 244° |
| 2026-05-04 02:57 | 51.36557 | -56.74118 | 33800 ft | 437 kts | 244° |
| 2026-05-04 02:58 | 51.34631 | -56.83357 | 33799 ft | 437 kts | 244° |
| 2026-05-04 02:58 | 51.32698 | -56.92583 | 33798 ft | 437 kts | 243° |
| 2026-05-04 02:59 | 51.30761 | -57.01789 | 33801 ft | 437 kts | 243° |
| 2026-05-04 02:59 | 51.28827 | -57.10936 | 33778 ft | 437 kts | 243° |
| 2026-05-04 03:00 | 51.26872 | -57.20143 | 33780 ft | 437 kts | 243° |
| 2026-05-04 03:00 | 51.24912 | -57.29333 | 33770 ft | 436 kts | 243° |
| 2026-05-04 03:01 | 51.22946 | -57.38505 | 33788 ft | 437 kts | 243° |
| 2026-05-04 03:01 | 51.20973 | -57.47670 | 33773 ft | 437 kts | 243° |
| 2026-05-04 03:02 | 51.19003 | -57.56784 | 33764 ft | 437 kts | 243° |
| 2026-05-04 03:02 | 51.17012 | -57.65952 | 33787 ft | 437 kts | 243° |
| 2026-05-04 03:03 | 51.15008 | -57.75135 | 33756 ft | 438 kts | 242° |
| 2026-05-04 03:03 | 51.12994 | -57.84324 | 33753 ft | 439 kts | 242° |
| 2026-05-04 03:04 | 51.10987 | -57.93441 | 33742 ft | 440 kts | 242° |
| 2026-05-04 03:04 | 51.08953 | -58.02643 | 33740 ft | 440 kts | 242° |
| 2026-05-04 03:05 | 51.06912 | -58.11834 | 33777 ft | 441 kts | 242° |
| 2026-05-04 03:05 | 51.04856 | -58.21051 | 33750 ft | 442 kts | 241° |
| 2026-05-04 03:06 | 51.02789 | -58.30278 | 33733 ft | 443 kts | 241° |
| 2026-05-04 03:06 | 51.00711 | -58.39511 | 33729 ft | 444 kts | 241° |
| 2026-05-04 03:07 | 50.98636 | -58.48696 | 33729 ft | 445 kts | 241° |
| 2026-05-04 03:07 | 50.96538 | -58.57941 | 33729 ft | 445 kts | 241° |
| 2026-05-04 03:08 | 50.94432 | -58.67179 | 33726 ft | 445 kts | 241° |
| 2026-05-04 03:08 | 50.92313 | -58.76433 | 33731 ft | 447 kts | 240° |
| 2026-05-04 03:09 | 50.90181 | -58.85696 | 33731 ft | 448 kts | 240° |
| 2026-05-04 03:09 | 50.88033 | -58.94992 | 33722 ft | 450 kts | 240° |
| 2026-05-04 03:10 | 50.85870 | -59.04316 | 33718 ft | 451 kts | 240° |
| 2026-05-04 03:10 | 50.83701 | -59.13632 | 33724 ft | 451 kts | 240° |
| 2026-05-04 03:11 | 50.81533 | -59.22900 | 33730 ft | 452 kts | 240° |
| 2026-05-04 03:11 | 50.79332 | -59.32255 | 33717 ft | 455 kts | 240° |
| 2026-05-04 03:12 | 50.77112 | -59.41655 | 33716 ft | 458 kts | 240° |
| 2026-05-04 03:12 | 50.74870 | -59.51113 | 33711 ft | 460 kts | 240° |
| 2026-05-04 03:13 | 50.72612 | -59.60599 | 33703 ft | 461 kts | 240° |
| 2026-05-04 03:13 | 50.70347 | -59.70074 | 33715 ft | 462 kts | 239° |
| 2026-05-04 03:14 | 50.68079 | -59.79518 | 33704 ft | 463 kts | 239° |
| 2026-05-04 03:14 | 50.65790 | -59.89009 | 33693 ft | 463 kts | 239° |
| 2026-05-04 03:15 | 50.63482 | -59.98531 | 33686 ft | 464 kts | 239° |
| 2026-05-04 03:15 | 50.61170 | -60.08035 | 33680 ft | 465 kts | 239° |
| 2026-05-04 03:16 | 50.58863 | -60.17469 | 33666 ft | 465 kts | 239° |
| 2026-05-04 03:16 | 50.56526 | -60.26984 | 33674 ft | 469 kts | 239° |
| 2026-05-04 03:17 | 50.54136 | -60.36646 | 33656 ft | 478 kts | 239° |
| 2026-05-04 03:17 | 50.51730 | -60.46385 | 33652 ft | 477 kts | 239° |
| 2026-05-04 03:18 | 50.49318 | -60.56105 | 33631 ft | 476 kts | 239° |
| 2026-05-04 03:18 | 50.46903 | -60.65781 | 33626 ft | 475 kts | 239° |
| 2026-05-04 03:19 | 50.44482 | -60.75432 | 33627 ft | 475 kts | 239° |
| 2026-05-04 03:19 | 50.42056 | -60.85050 | 33612 ft | 477 kts | 239° |
| 2026-05-04 03:20 | 50.39604 | -60.94737 | 33617 ft | 478 kts | 239° |
| 2026-05-04 03:20 | 50.37139 | -61.04437 | 33624 ft | 479 kts | 239° |
| 2026-05-04 03:21 | 50.34664 | -61.14137 | 33660 ft | 480 kts | 239° |
| 2026-05-04 03:21 | 50.32189 | -61.23793 | 33624 ft | 482 kts | 239° |
| 2026-05-04 03:22 | 50.29682 | -61.33530 | 33611 ft | 482 kts | 239° |
| 2026-05-04 03:22 | 50.27171 | -61.43247 | 33603 ft | 482 kts | 239° |
| 2026-05-04 03:23 | 50.24650 | -61.52956 | 33599 ft | 482 kts | 239° |
| 2026-05-04 03:23 | 50.22122 | -61.62654 | 33595 ft | 482 kts | 239° |
| 2026-05-04 03:24 | 50.19584 | -61.72346 | 33616 ft | 482 kts | 239° |
| 2026-05-04 03:24 | 50.17034 | -61.82040 | 33601 ft | 483 kts | 239° |
| 2026-05-04 03:25 | 50.14469 | -61.91754 | 33632 ft | 484 kts | 239° |
| 2026-05-04 03:25 | 50.11906 | -62.01415 | 33620 ft | 485 kts | 239° |
| 2026-05-04 03:26 | 50.09318 | -62.11135 | 33606 ft | 485 kts | 239° |
| 2026-05-04 03:26 | 50.06725 | -62.20835 | 33605 ft | 485 kts | 239° |
| 2026-05-04 03:27 | 50.04122 | -62.30528 | 33585 ft | 485 kts | 238° |
| 2026-05-04 03:27 | 50.01522 | -62.40171 | 33597 ft | 485 kts | 238° |
| 2026-05-04 03:28 | 49.98905 | -62.49832 | 33584 ft | 485 kts | 238° |
| 2026-05-04 03:28 | 49.96279 | -62.59488 | 33581 ft | 485 kts | 238° |
| 2026-05-04 03:29 | 49.93646 | -62.69132 | 33612 ft | 485 kts | 238° |
| 2026-05-04 03:29 | 49.91009 | -62.78755 | 33591 ft | 483 kts | 238° |
| 2026-05-04 03:30 | 49.88380 | -62.88308 | 33586 ft | 481 kts | 238° |
| 2026-05-04 03:30 | 49.85748 | -62.97830 | 33597 ft | 480 kts | 238° |
| 2026-05-04 03:31 | 49.83122 | -63.07286 | 33599 ft | 479 kts | 238° |
| 2026-05-04 03:31 | 49.80478 | -63.16769 | 33608 ft | 480 kts | 238° |
| 2026-05-04 03:32 | 49.77815 | -63.26280 | 33602 ft | 482 kts | 238° |
| 2026-05-04 03:32 | 49.75142 | -63.35794 | 33613 ft | 484 kts | 238° |
| 2026-05-04 03:33 | 49.72451 | -63.45337 | 33600 ft | 484 kts | 238° |
| 2026-05-04 03:33 | 49.69755 | -63.54862 | 33597 ft | 483 kts | 238° |
| 2026-05-04 03:34 | 49.67054 | -63.64367 | 33607 ft | 483 kts | 238° |
| 2026-05-04 03:34 | 49.64357 | -63.73812 | 33609 ft | 484 kts | 238° |
| 2026-05-04 03:35 | 49.61633 | -63.83316 | 33606 ft | 484 kts | 238° |
| 2026-05-04 03:35 | 49.58906 | -63.92794 | 33605 ft | 484 kts | 238° |
| 2026-05-04 03:36 | 49.56166 | -64.02278 | 33646 ft | 484 kts | 238° |
| 2026-05-04 03:36 | 49.53886 | -64.10142 | 33639 ft | 484 kts | 238° |
| 2026-05-04 03:37 | 49.50682 | -64.21152 | 33641 ft | 484 kts | 238° |
| 2026-05-04 03:37 | 49.47922 | -64.30596 | 33663 ft | 483 kts | 238° |
| 2026-05-04 03:38 | 49.45609 | -64.38483 | 33668 ft | 483 kts | 238° |
| 2026-05-04 03:38 | 49.42857 | -64.47833 | 33671 ft | 482 kts | 238° |
| 2026-05-04 03:39 | 49.40079 | -64.57230 | 33681 ft | 483 kts | 238° |
| 2026-05-04 03:39 | 49.37295 | -64.66611 | 33684 ft | 483 kts | 238° |
| 2026-05-04 03:40 | 49.34504 | -64.75984 | 33701 ft | 483 kts | 239° |
| 2026-05-04 03:40 | 49.31722 | -64.85292 | 33697 ft | 482 kts | 239° |
| 2026-05-04 03:41 | 49.28922 | -64.94623 | 33693 ft | 481 kts | 239° |
| 2026-05-04 03:41 | 49.26121 | -65.03920 | 33704 ft | 480 kts | 239° |
| 2026-05-04 03:42 | 49.23306 | -65.13229 | 33699 ft | 480 kts | 239° |
| 2026-05-04 03:42 | 49.20515 | -65.22427 | 33699 ft | 479 kts | 239° |
| 2026-05-04 03:43 | 49.17699 | -65.31666 | 33690 ft | 479 kts | 239° |
| 2026-05-04 03:43 | 49.14873 | -65.40902 | 33726 ft | 480 kts | 239° |
| 2026-05-04 03:44 | 49.12045 | -65.50117 | 33682 ft | 478 kts | 240° |
| 2026-05-04 03:44 | 49.09224 | -65.59278 | 33683 ft | 475 kts | 240° |
| 2026-05-04 03:45 | 49.06414 | -65.68367 | 33699 ft | 472 kts | 240° |
| 2026-05-04 03:45 | 49.03609 | -65.77402 | 33679 ft | 471 kts | 240° |
| 2026-05-04 03:46 | 49.00802 | -65.86412 | 33671 ft | 471 kts | 240° |
| 2026-05-04 03:46 | 48.97989 | -65.95405 | 33690 ft | 470 kts | 240° |
| 2026-05-04 03:47 | 48.95183 | -66.04351 | 33682 ft | 471 kts | 240° |
| 2026-05-04 03:47 | 48.92352 | -66.13336 | 33692 ft | 470 kts | 240° |
| 2026-05-04 03:48 | 48.89523 | -66.22288 | 33682 ft | 469 kts | 240° |
| 2026-05-04 03:48 | 48.86692 | -66.31220 | 33692 ft | 468 kts | 240° |
| 2026-05-04 03:49 | 48.83856 | -66.40125 | 33691 ft | 468 kts | 241° |
| 2026-05-04 03:49 | 48.81021 | -66.49001 | 33700 ft | 467 kts | 241° |
| 2026-05-04 03:50 | 48.78198 | -66.57809 | 33702 ft | 467 kts | 241° |
| 2026-05-04 03:50 | 48.75353 | -66.66652 | 33701 ft | 466 kts | 241° |
| 2026-05-04 03:51 | 48.72504 | -66.75481 | 33716 ft | 466 kts | 240° |
| 2026-05-04 03:51 | 48.69645 | -66.84306 | 33709 ft | 467 kts | 240° |
| 2026-05-04 03:52 | 48.66792 | -66.93079 | 33709 ft | 467 kts | 240° |
| 2026-05-04 03:52 | 48.63914 | -67.01901 | 33721 ft | 468 kts | 240° |
| 2026-05-04 03:53 | 48.61029 | -67.10715 | 33719 ft | 468 kts | 240° |
| 2026-05-04 03:53 | 48.58130 | -67.19543 | 33722 ft | 468 kts | 240° |
| 2026-05-04 03:54 | 48.55221 | -67.28367 | 33725 ft | 470 kts | 240° |
| 2026-05-04 03:54 | 48.52303 | -67.37190 | 33727 ft | 471 kts | 240° |
| 2026-05-04 03:55 | 48.49386 | -67.45979 | 33731 ft | 471 kts | 240° |
| 2026-05-04 03:55 | 48.46441 | -67.54820 | 33735 ft | 472 kts | 240° |
| 2026-05-04 03:56 | 48.43480 | -67.63681 | 33745 ft | 472 kts | 240° |
| 2026-05-04 03:56 | 48.40532 | -67.72471 | 33734 ft | 473 kts | 240° |
| 2026-05-04 03:57 | 48.37562 | -67.81297 | 33729 ft | 473 kts | 240° |
| 2026-05-04 03:57 | 48.34578 | -67.90132 | 33729 ft | 473 kts | 240° |
| 2026-05-04 03:58 | 48.30095 | -68.03354 | 33754 ft | 473 kts | 240° |
| 2026-05-04 03:58 | 48.27121 | -68.12085 | 33740 ft | 471 kts | 240° |
| 2026-05-04 03:59 | 48.24127 | -68.20849 | 33734 ft | 470 kts | 240° |
| 2026-05-04 03:59 | 48.21140 | -68.29560 | 33741 ft | 469 kts | 240° |
| 2026-05-04 04:00 | 48.18152 | -68.38245 | 33743 ft | 468 kts | 240° |
| 2026-05-04 04:00 | 48.15163 | -68.46903 | 33745 ft | 468 kts | 240° |
| 2026-05-04 04:01 | 48.12165 | -68.55559 | 33758 ft | 468 kts | 240° |
| 2026-05-04 04:01 | 48.09170 | -68.64177 | 33758 ft | 469 kts | 240° |
| 2026-05-04 04:02 | 48.06152 | -68.72834 | 33749 ft | 469 kts | 240° |
| 2026-05-04 04:02 | 48.03123 | -68.81492 | 33760 ft | 469 kts | 240° |
| 2026-05-04 04:03 | 48.00105 | -68.90091 | 33786 ft | 469 kts | 240° |
| 2026-05-04 04:03 | 47.97070 | -68.98710 | 33764 ft | 469 kts | 240° |
| 2026-05-04 04:04 | 47.94026 | -69.07326 | 33773 ft | 469 kts | 240° |
| 2026-05-04 04:04 | 47.90976 | -69.15932 | 33774 ft | 469 kts | 240° |
| 2026-05-04 04:05 | 47.87920 | -69.24527 | 33777 ft | 469 kts | 240° |
| 2026-05-04 04:05 | 47.84855 | -69.33118 | 33786 ft | 469 kts | 240° |
| 2026-05-04 04:06 | 47.81785 | -69.41696 | 33778 ft | 469 kts | 240° |
| 2026-05-04 04:06 | 47.78733 | -69.50202 | 33776 ft | 469 kts | 240° |
| 2026-05-04 04:07 | 47.75678 | -69.58763 | 33779 ft | 469 kts | 242° |
| 2026-05-04 04:07 | 47.73204 | -69.67750 | 33778 ft | 470 kts | 247° |
| 2026-05-04 04:08 | 47.70859 | -69.76811 | 33782 ft | 470 kts | 248° |
| 2026-05-04 04:08 | 47.68494 | -69.85847 | 33778 ft | 470 kts | 247° |
| 2026-05-04 04:09 | 47.66106 | -69.94866 | 33786 ft | 469 kts | 248° |
| 2026-05-04 04:09 | 47.63709 | -70.03860 | 33785 ft | 469 kts | 247° |
| 2026-05-04 04:10 | 47.61320 | -70.12790 | 33790 ft | 468 kts | 247° |
| 2026-05-04 04:10 | 47.58914 | -70.21752 | 33788 ft | 467 kts | 247° |
| 2026-05-04 04:11 | 47.56504 | -70.30694 | 33790 ft | 467 kts | 247° |
| 2026-05-04 04:11 | 47.54087 | -70.39631 | 33784 ft | 467 kts | 247° |
| 2026-05-04 04:12 | 47.51667 | -70.48543 | 33794 ft | 466 kts | 247° |
| 2026-05-04 04:12 | 47.49243 | -70.57436 | 33782 ft | 466 kts | 247° |
| 2026-05-04 04:13 | 47.46828 | -70.66268 | 33784 ft | 466 kts | 247° |
| 2026-05-04 04:13 | 47.44395 | -70.75128 | 33783 ft | 465 kts | 247° |
| 2026-05-04 04:14 | 47.41950 | -70.83998 | 33780 ft | 466 kts | 247° |
| 2026-05-04 04:14 | 47.39498 | -70.92860 | 33787 ft | 466 kts | 247° |
| 2026-05-04 04:15 | 47.37042 | -71.01710 | 33791 ft | 467 kts | 247° |
| 2026-05-04 04:15 | 47.34568 | -71.10585 | 33791 ft | 467 kts | 247° |
| 2026-05-04 04:16 | 47.32106 | -71.19388 | 33792 ft | 467 kts | 247° |
| 2026-05-04 04:16 | 47.29618 | -71.28248 | 33793 ft | 468 kts | 247° |
| 2026-05-04 04:17 | 47.27122 | -71.37105 | 33791 ft | 468 kts | 247° |
| 2026-05-04 04:17 | 47.24623 | -71.45942 | 33790 ft | 468 kts | 247° |
| 2026-05-04 04:18 | 47.22113 | -71.54786 | 33812 ft | 467 kts | 247° |
| 2026-05-04 04:18 | 47.19598 | -71.63612 | 33803 ft | 467 kts | 247° |
| 2026-05-04 04:19 | 47.17081 | -71.72414 | 33802 ft | 467 kts | 247° |
| 2026-05-04 04:19 | 47.14577 | -71.81141 | 33808 ft | 466 kts | 247° |
| 2026-05-04 04:20 | 47.12055 | -71.89900 | 33807 ft | 465 kts | 247° |
| 2026-05-04 04:20 | 47.09524 | -71.98655 | 33814 ft | 465 kts | 247° |
| 2026-05-04 04:21 | 47.06990 | -72.07391 | 33834 ft | 464 kts | 247° |
| 2026-05-04 04:21 | 47.04456 | -72.16096 | 33814 ft | 464 kts | 247° |
| 2026-05-04 04:22 | 47.01933 | -72.24731 | 33815 ft | 463 kts | 247° |
| 2026-05-04 04:22 | 46.99393 | -72.33396 | 33811 ft | 462 kts | 247° |
| 2026-05-04 04:23 | 46.96848 | -72.42045 | 33814 ft | 461 kts | 247° |
| 2026-05-04 04:23 | 46.94305 | -72.50658 | 33811 ft | 461 kts | 246° |
| 2026-05-04 04:24 | 46.91760 | -72.59249 | 33818 ft | 460 kts | 246° |
| 2026-05-04 04:24 | 46.89224 | -72.67780 | 33807 ft | 460 kts | 247° |
| 2026-05-04 04:25 | 46.86669 | -72.76343 | 33811 ft | 459 kts | 247° |
| 2026-05-04 04:25 | 46.84106 | -72.84907 | 33811 ft | 459 kts | 246° |
| 2026-05-04 04:26 | 46.81976 | -72.92001 | 33812 ft | 459 kts | 246° |
| 2026-05-04 04:26 | 46.79404 | -73.00536 | 33811 ft | 459 kts | 246° |
| 2026-05-04 04:27 | 46.76829 | -73.09056 | 33811 ft | 459 kts | 246° |
| 2026-05-04 04:27 | 46.74259 | -73.17529 | 33805 ft | 458 kts | 247° |
| 2026-05-04 04:28 | 46.71670 | -73.26037 | 33809 ft | 458 kts | 247° |
| 2026-05-04 04:28 | 46.69077 | -73.34530 | 33807 ft | 458 kts | 247° |
| 2026-05-04 04:29 | 46.66477 | -73.43013 | 33804 ft | 458 kts | 246° |
| 2026-05-04 04:29 | 46.63891 | -73.51427 | 33805 ft | 458 kts | 246° |
| 2026-05-04 04:30 | 46.61283 | -73.59882 | 33803 ft | 458 kts | 247° |
| 2026-05-04 04:30 | 46.58670 | -73.68325 | 33804 ft | 457 kts | 246° |
| 2026-05-04 04:31 | 46.56057 | -73.76738 | 33801 ft | 456 kts | 246° |
| 2026-05-04 04:31 | 46.53439 | -73.85142 | 33800 ft | 456 kts | 246° |
| 2026-05-04 04:32 | 46.50833 | -73.93478 | 33801 ft | 455 kts | 246° |
| 2026-05-04 04:32 | 46.48209 | -74.01847 | 33798 ft | 455 kts | 246° |
| 2026-05-04 04:33 | 46.45578 | -74.10209 | 33792 ft | 455 kts | 246° |
| 2026-05-04 04:33 | 46.42946 | -74.18546 | 33798 ft | 454 kts | 246° |
| 2026-05-04 04:34 | 46.40309 | -74.26872 | 33790 ft | 454 kts | 246° |
| 2026-05-04 04:34 | 46.37663 | -74.35200 | 33790 ft | 454 kts | 246° |
| 2026-05-04 04:35 | 46.35036 | -74.43442 | 33787 ft | 454 kts | 246° |
| 2026-05-04 04:35 | 46.32384 | -74.51734 | 33776 ft | 454 kts | 246° |
| 2026-05-04 04:36 | 46.29728 | -74.60012 | 33787 ft | 453 kts | 246° |
| 2026-05-04 04:36 | 46.27068 | -74.68275 | 33790 ft | 453 kts | 246° |
| 2026-05-04 04:37 | 46.21747 | -74.84730 | 33782 ft | 453 kts | 246° |
| 2026-05-04 04:38 | 46.19068 | -74.92974 | 33785 ft | 453 kts | 246° |
| 2026-05-04 04:38 | 46.16387 | -75.01198 | 33773 ft | 452 kts | 246° |
| 2026-05-04 04:39 | 46.13705 | -75.09399 | 33766 ft | 452 kts | 246° |
| 2026-05-04 04:39 | 46.11019 | -75.17588 | 33785 ft | 451 kts | 246° |
| 2026-05-04 04:40 | 46.08333 | -75.25748 | 33764 ft | 451 kts | 246° |
| 2026-05-04 04:40 | 46.05660 | -75.33846 | 33763 ft | 450 kts | 246° |
| 2026-05-04 04:41 | 46.02972 | -75.41964 | 33769 ft | 449 kts | 246° |
| 2026-05-04 04:41 | 46.00276 | -75.50081 | 33768 ft | 449 kts | 246° |
| 2026-05-04 04:42 | 45.97578 | -75.58180 | 33765 ft | 448 kts | 246° |
| 2026-05-04 04:42 | 45.94878 | -75.66262 | 33765 ft | 448 kts | 246° |
| 2026-05-04 04:43 | 45.92170 | -75.74345 | 33766 ft | 448 kts | 246° |
| 2026-05-04 04:43 | 45.89392 | -75.82361 | 33750 ft | 449 kts | 242° |
| 2026-05-04 04:44 | 45.86106 | -75.89880 | 33761 ft | 450 kts | 239° |
| 2026-05-04 04:44 | 45.82734 | -75.97491 | 33763 ft | 450 kts | 240° |
| 2026-05-04 04:45 | 45.79384 | -76.05078 | 33765 ft | 450 kts | 240° |
| 2026-05-04 04:47 | 45.67655 | -76.31605 | 33764 ft | 448 kts | 240° |
| 2026-05-04 04:47 | 45.64334 | -76.39072 | 33766 ft | 447 kts | 240° |
| 2026-05-04 04:48 | 45.60992 | -76.46566 | 33759 ft | 446 kts | 240° |
| 2026-05-04 04:49 | 45.52638 | -76.65211 | 33770 ft | 445 kts | 240° |
| 2026-05-04 04:49 | 45.49313 | -76.72599 | 33770 ft | 445 kts | 240° |
| 2026-05-04 04:50 | 45.45971 | -76.80005 | 33767 ft | 444 kts | 240° |
| 2026-05-04 04:50 | 45.42621 | -76.87408 | 33770 ft | 444 kts | 240° |
| 2026-05-04 04:51 | 45.39273 | -76.94789 | 33768 ft | 443 kts | 240° |
| 2026-05-04 04:51 | 45.35926 | -77.02147 | 33774 ft | 443 kts | 240° |
| 2026-05-04 04:52 | 45.32571 | -77.09503 | 33780 ft | 443 kts | 240° |
| 2026-05-04 04:52 | 45.29212 | -77.16851 | 33774 ft | 443 kts | 240° |
| 2026-05-04 04:53 | 45.25872 | -77.24135 | 33784 ft | 442 kts | 240° |
| 2026-05-04 04:53 | 45.22509 | -77.31455 | 33776 ft | 441 kts | 240° |
| 2026-05-04 04:54 | 45.19156 | -77.38732 | 33790 ft | 441 kts | 240° |
| 2026-05-04 04:54 | 45.15795 | -77.46008 | 33788 ft | 440 kts | 240° |
| 2026-05-04 04:55 | 45.12459 | -77.53213 | 33795 ft | 440 kts | 240° |
| 2026-05-04 04:55 | 45.09095 | -77.60458 | 33774 ft | 440 kts | 240° |
| 2026-05-04 04:56 | 45.05730 | -77.67689 | 33789 ft | 440 kts | 240° |
| 2026-05-04 04:56 | 45.02355 | -77.74920 | 33794 ft | 440 kts | 240° |
| 2026-05-04 04:57 | 44.98976 | -77.82144 | 33790 ft | 441 kts | 240° |
| 2026-05-04 04:57 | 44.95580 | -77.89385 | 33791 ft | 441 kts | 240° |
| 2026-05-04 04:58 | 44.92183 | -77.96610 | 33788 ft | 442 kts | 240° |
| 2026-05-04 04:58 | 44.88802 | -78.03784 | 33797 ft | 442 kts | 240° |
| 2026-05-04 04:59 | 44.85393 | -78.10998 | 33795 ft | 442 kts | 240° |
| 2026-05-04 04:59 | 44.81970 | -78.18222 | 33797 ft | 443 kts | 240° |
| 2026-05-04 05:00 | 44.78546 | -78.25431 | 33794 ft | 443 kts | 240° |
| 2026-05-04 05:01 | 44.73402 | -78.36230 | 33789 ft | 443 kts | 240° |
| 2026-05-04 05:01 | 44.69968 | -78.43415 | 33795 ft | 443 kts | 240° |
| 2026-05-04 05:02 | 44.66522 | -78.50607 | 33793 ft | 443 kts | 240° |
| 2026-05-04 05:02 | 44.63071 | -78.57793 | 33795 ft | 443 kts | 240° |
| 2026-05-04 05:03 | 44.59619 | -78.64963 | 33779 ft | 443 kts | 240° |
| 2026-05-04 05:04 | 44.52704 | -78.79270 | 33790 ft | 445 kts | 240° |
| 2026-05-04 05:04 | 44.49223 | -78.86447 | 33794 ft | 446 kts | 240° |
| 2026-05-04 05:06 | 44.35211 | -79.15162 | 33800 ft | 447 kts | 240° |
| 2026-05-04 05:07 | 44.31628 | -79.22261 | 33801 ft | 449 kts | 236° |
| 2026-05-04 05:07 | 44.27461 | -79.28760 | 33809 ft | 452 kts | 232° |
| 2026-05-04 05:09 | 44.08457 | -79.57863 | 33801 ft | 451 kts | 232° |
| 2026-05-04 05:10 | 44.04229 | -79.64320 | 33809 ft | 452 kts | 232° |
| 2026-05-04 05:10 | 43.99983 | -79.70790 | 33803 ft | 453 kts | 232° |
| 2026-05-04 05:11 | 43.95727 | -79.77259 | 33780 ft | 453 kts | 232° |
| 2026-05-04 05:11 | 43.91470 | -79.83717 | 33811 ft | 453 kts | 232° |
| 2026-05-04 05:12 | 43.87932 | -79.89072 | 33806 ft | 453 kts | 232° |
| 2026-05-04 05:12 | 43.82985 | -79.96546 | 33808 ft | 452 kts | 232° |
| 2026-05-04 05:13 | 43.79419 | -80.01919 | 33814 ft | 451 kts | 232° |
| 2026-05-04 05:13 | 43.75166 | -80.08311 | 33811 ft | 451 kts | 232° |
| 2026-05-04 05:14 | 43.70941 | -80.14646 | 33826 ft | 451 kts | 232° |
| 2026-05-04 05:14 | 43.66688 | -80.21014 | 33822 ft | 451 kts | 232° |
| 2026-05-04 05:15 | 43.62425 | -80.27383 | 33820 ft | 451 kts | 232° |
| 2026-05-04 05:15 | 43.58157 | -80.33745 | 33816 ft | 452 kts | 232° |
| 2026-05-04 05:16 | 43.53872 | -80.40118 | 33826 ft | 453 kts | 232° |
| 2026-05-04 05:16 | 43.49571 | -80.46501 | 33825 ft | 455 kts | 232° |
| 2026-05-04 05:17 | 43.45257 | -80.52888 | 33826 ft | 456 kts | 232° |
| 2026-05-04 05:17 | 43.40934 | -80.59273 | 33819 ft | 456 kts | 232° |
| 2026-05-04 05:18 | 43.36605 | -80.65654 | 33838 ft | 456 kts | 232° |
| 2026-05-04 05:18 | 43.32269 | -80.72031 | 33845 ft | 456 kts | 232° |
| 2026-05-04 05:19 | 43.27938 | -80.78385 | 33846 ft | 456 kts | 232° |
| 2026-05-04 05:19 | 43.23621 | -80.84706 | 33835 ft | 455 kts | 232° |
| 2026-05-04 05:20 | 43.19289 | -80.91035 | 33834 ft | 455 kts | 232° |
| 2026-05-04 05:20 | 43.14952 | -80.97359 | 33859 ft | 455 kts | 232° |
| 2026-05-04 05:21 | 43.10606 | -81.03682 | 33856 ft | 456 kts | 232° |
| 2026-05-04 05:21 | 43.06244 | -81.09976 | 33842 ft | 457 kts | 230° |
| 2026-05-04 05:22 | 43.01604 | -81.15950 | 33852 ft | 459 kts | 228° |
| 2026-05-04 05:22 | 42.96931 | -81.21833 | 33853 ft | 460 kts | 227° |
| 2026-05-04 05:23 | 42.92229 | -81.27762 | 33853 ft | 460 kts | 228° |
| 2026-05-04 05:23 | 42.87526 | -81.33706 | 33860 ft | 460 kts | 228° |
| 2026-05-04 05:24 | 42.82823 | -81.39647 | 33867 ft | 461 kts | 228° |
| 2026-05-04 05:24 | 42.78119 | -81.45577 | 33872 ft | 461 kts | 228° |
| 2026-05-04 05:25 | 42.73427 | -81.51478 | 33869 ft | 462 kts | 228° |
| 2026-05-04 05:25 | 42.68696 | -81.57414 | 33860 ft | 462 kts | 228° |
| 2026-05-04 05:26 | 42.63964 | -81.63338 | 33870 ft | 462 kts | 227° |
| 2026-05-04 05:26 | 42.59256 | -81.69220 | 33865 ft | 462 kts | 228° |
| 2026-05-04 05:28 | 42.40299 | -81.92777 | 33872 ft | 462 kts | 227° |
| 2026-05-04 05:29 | 42.35591 | -81.98596 | 33871 ft | 462 kts | 227° |
| 2026-05-04 05:29 | 42.30843 | -82.04452 | 33863 ft | 461 kts | 227° |
| 2026-05-04 05:31 | 42.11867 | -82.27734 | 33894 ft | 463 kts | 227° |
| 2026-05-04 05:32 | 42.09473 | -82.30660 | 34060 ft | 466 kts | 227° |
| 2026-05-04 05:32 | 42.07069 | -82.33592 | 34392 ft | 465 kts | 227° |
| 2026-05-04 05:32 | 42.04672 | -82.36510 | 34779 ft | 464 kts | 227° |
| 2026-05-04 05:33 | 41.99905 | -82.42307 | 35495 ft | 461 kts | 227° |
| 2026-05-04 05:33 | 41.97517 | -82.45207 | 35764 ft | 461 kts | 227° |
| 2026-05-04 05:33 | 41.95126 | -82.48110 | 35795 ft | 464 kts | 227° |
| 2026-05-04 05:34 | 41.90338 | -82.53911 | 35889 ft | 462 kts | 227° |
| 2026-05-04 05:34 | 41.85603 | -82.59633 | 35895 ft | 460 kts | 227° |
| 2026-05-04 05:35 | 41.80847 | -82.65372 | 35889 ft | 459 kts | 227° |
| 2026-05-04 05:35 | 41.76103 | -82.71086 | 35889 ft | 458 kts | 227° |
| 2026-05-04 05:36 | 41.71352 | -82.76795 | 35890 ft | 458 kts | 227° |
| 2026-05-04 05:36 | 41.66291 | -82.82047 | 35890 ft | 463 kts | 219° |
| 2026-05-04 05:37 | 41.60933 | -82.86868 | 35901 ft | 464 kts | 219° |
| 2026-05-04 05:37 | 41.55599 | -82.91670 | 35881 ft | 465 kts | 219° |
| 2026-05-04 05:38 | 41.47549 | -82.98963 | 35913 ft | 466 kts | 219° |
| 2026-05-04 05:38 | 41.42186 | -83.03823 | 35913 ft | 466 kts | 219° |
| 2026-05-04 05:39 | 41.34125 | -83.11109 | 35906 ft | 467 kts | 219° |
| 2026-05-04 05:40 | 41.26058 | -83.18375 | 35905 ft | 466 kts | 219° |
| 2026-05-04 05:40 | 41.20685 | -83.23202 | 35930 ft | 466 kts | 219° |
| 2026-05-04 05:41 | 41.15339 | -83.27996 | 35931 ft | 465 kts | 219° |
| 2026-05-04 05:41 | 41.09971 | -83.32800 | 35921 ft | 465 kts | 219° |
| 2026-05-04 05:42 | 41.04610 | -83.37587 | 35929 ft | 464 kts | 219° |
| 2026-05-04 05:42 | 40.99254 | -83.42363 | 35929 ft | 464 kts | 219° |
| 2026-05-04 05:43 | 40.93894 | -83.47130 | 35900 ft | 464 kts | 219° |
| 2026-05-04 05:45 | 40.72519 | -83.66052 | 35928 ft | 462 kts | 219° |
| 2026-05-04 05:47 | 40.51115 | -83.84851 | 35951 ft | 462 kts | 219° |
| 2026-05-04 05:47 | 40.45757 | -83.89534 | 35954 ft | 462 kts | 219° |
| 2026-05-04 05:48 | 40.40427 | -83.94185 | 35947 ft | 462 kts | 219° |
| 2026-05-04 05:48 | 40.35064 | -83.98856 | 35951 ft | 462 kts | 219° |
| 2026-05-04 05:49 | 40.29873 | -84.03757 | 35945 ft | 455 kts | 227° |
| 2026-05-04 05:49 | 40.25510 | -84.09637 | 35942 ft | 446 kts | 237° |
| 2026-05-04 05:51 | 40.10242 | -84.35163 | 35927 ft | 446 kts | 237° |
| 2026-05-04 05:52 | 40.06402 | -84.41515 | 35935 ft | 445 kts | 237° |
| 2026-05-04 05:52 | 40.02562 | -84.47854 | 35940 ft | 445 kts | 237° |
| 2026-05-04 05:54 | 39.87192 | -84.73100 | 35942 ft | 443 kts | 237° |
| 2026-05-04 05:55 | 39.83353 | -84.79375 | 35957 ft | 443 kts | 237° |
| 2026-05-04 05:55 | 39.79528 | -84.85616 | 35955 ft | 443 kts | 237° |
| 2026-05-04 05:56 | 39.75679 | -84.91884 | 35950 ft | 444 kts | 237° |
| 2026-05-04 05:56 | 39.71821 | -84.98150 | 35955 ft | 443 kts | 237° |
| 2026-05-04 05:57 | 39.67966 | -85.04399 | 35944 ft | 442 kts | 238° |
| 2026-05-04 05:57 | 39.64765 | -85.09579 | 35947 ft | 441 kts | 237° |
| 2026-05-04 05:58 | 39.60929 | -85.15777 | 35944 ft | 440 kts | 237° |
| 2026-05-04 05:58 | 39.57112 | -85.21933 | 35949 ft | 439 kts | 237° |
| 2026-05-04 05:59 | 39.53280 | -85.28100 | 35944 ft | 438 kts | 237° |
| 2026-05-04 05:59 | 39.49455 | -85.34243 | 35947 ft | 438 kts | 237° |
| 2026-05-04 06:00 | 39.45622 | -85.40389 | 35945 ft | 438 kts | 238° |
| 2026-05-04 06:00 | 39.41792 | -85.46517 | 35931 ft | 438 kts | 238° |
| 2026-05-04 06:01 | 39.37957 | -85.52641 | 35944 ft | 438 kts | 238° |
| 2026-05-04 06:03 | 39.22583 | -85.77070 | 35951 ft | 438 kts | 238° |
| 2026-05-04 06:05 | 39.05275 | -86.04354 | 35924 ft | 436 kts | 238° |
| 2026-05-04 06:06 | 39.01436 | -86.10370 | 35945 ft | 434 kts | 239° |
| 2026-05-04 06:06 | 38.97635 | -86.16317 | 35948 ft | 432 kts | 239° |
| 2026-05-04 06:07 | 38.93826 | -86.22268 | 35954 ft | 430 kts | 239° |
| 2026-05-04 06:07 | 38.90030 | -86.28189 | 35947 ft | 429 kts | 239° |
| 2026-05-04 06:08 | 38.86233 | -86.34099 | 35927 ft | 428 kts | 239° |
| 2026-05-04 06:08 | 38.82466 | -86.39952 | 35937 ft | 428 kts | 239° |
| 2026-05-04 06:09 | 38.78668 | -86.45844 | 35941 ft | 428 kts | 239° |
| 2026-05-04 06:11 | 38.63407 | -86.69401 | 35968 ft | 432 kts | 239° |
| 2026-05-04 06:13 | 38.47952 | -86.93079 | 35970 ft | 435 kts | 239° |
| 2026-05-04 06:14 | 38.34345 | -87.13783 | 35965 ft | 434 kts | 239° |
| 2026-05-04 06:15 | 38.30482 | -87.19638 | 35955 ft | 434 kts | 239° |
| 2026-05-04 06:15 | 38.26591 | -87.25523 | 35943 ft | 434 kts | 239° |
| 2026-05-04 06:16 | 38.22700 | -87.31397 | 35946 ft | 433 kts | 239° |
| 2026-05-04 06:16 | 38.18812 | -87.37256 | 35934 ft | 433 kts | 238° |
| 2026-05-04 06:17 | 38.14960 | -87.43052 | 35925 ft | 432 kts | 238° |
| 2026-05-04 06:17 | 38.11083 | -87.48875 | 35943 ft | 431 kts | 238° |
| 2026-05-04 06:18 | 38.07208 | -87.54684 | 35951 ft | 431 kts | 238° |
| 2026-05-04 06:20 | 37.91197 | -87.77389 | 35940 ft | 453 kts | 218° |
| 2026-05-04 06:21 | 37.76792 | -87.86033 | 35960 ft | 461 kts | 215° |
| 2026-05-04 06:22 | 37.71014 | -87.89578 | 35950 ft | 462 kts | 215° |
| 2026-05-04 06:25 | 37.30351 | -88.14275 | 35957 ft | 461 kts | 215° |
| 2026-05-04 06:26 | 37.24578 | -88.17756 | 35961 ft | 459 kts | 215° |
| 2026-05-04 06:26 | 37.18820 | -88.21222 | 35960 ft | 457 kts | 214° |
| 2026-05-04 06:27 | 37.16482 | -88.22627 | 35960 ft | 457 kts | 214° |
| 2026-05-04 12:49 | 37.15290 | -88.23345 | 35949 ft | 457 kts | 213° |
| 2026-05-04 12:49 | 37.09569 | -88.26778 | 35944 ft | 455 kts | 213° |
| 2026-05-04 12:50 | 37.03856 | -88.30198 | 35941 ft | 454 kts | 213° |
| 2026-05-04 12:50 | 36.98211 | -88.33563 | 35914 ft | 440 kts | 213° |
| 2026-05-04 12:50 | 36.95501 | -88.35175 | 35589 ft | 434 kts | 213° |
| 2026-05-04 12:51 | 36.92791 | -88.36789 | 35233 ft | 428 kts | 213° |
| 2026-05-04 12:51 | 36.90116 | -88.38385 | 34815 ft | 424 kts | 213° |
| 2026-05-04 12:51 | 36.87462 | -88.39969 | 34386 ft | 421 kts | 213° |
| 2026-05-04 12:51 | 36.84822 | -88.41543 | 33951 ft | 417 kts | 214° |
| 2026-05-04 12:52 | 36.82214 | -88.43097 | 33474 ft | 414 kts | 213° |
| 2026-05-04 12:52 | 36.79623 | -88.44639 | 33004 ft | 411 kts | 213° |
| 2026-05-04 12:52 | 36.77052 | -88.46167 | 32577 ft | 407 kts | 213° |
| 2026-05-04 12:52 | 36.74505 | -88.47679 | 32125 ft | 403 kts | 213° |
| 2026-05-04 12:53 | 36.71985 | -88.49173 | 31703 ft | 399 kts | 213° |
| 2026-05-04 12:53 | 36.69511 | -88.50640 | 31289 ft | 396 kts | 213° |
| 2026-05-04 12:53 | 36.67036 | -88.52107 | 30891 ft | 393 kts | 213° |
| 2026-05-04 12:53 | 36.64575 | -88.53564 | 30471 ft | 390 kts | 213° |
| 2026-05-04 12:54 | 36.62132 | -88.55011 | 30061 ft | 388 kts | 213° |
| 2026-05-04 12:54 | 36.59703 | -88.56449 | 29574 ft | 387 kts | 213° |
| 2026-05-04 12:54 | 36.57278 | -88.57883 | 29137 ft | 385 kts | 213° |
| 2026-05-04 12:54 | 36.54861 | -88.59309 | 28722 ft | 383 kts | 213° |
| 2026-05-04 12:55 | 36.52460 | -88.60726 | 28295 ft | 381 kts | 213° |
| 2026-05-04 12:55 | 36.50066 | -88.62137 | 27885 ft | 379 kts | 213° |
| 2026-05-04 12:55 | 36.47690 | -88.63537 | 27450 ft | 377 kts | 213° |
| 2026-05-04 12:55 | 36.45323 | -88.64931 | 27057 ft | 375 kts | 213° |
| 2026-05-04 12:56 | 36.42967 | -88.66317 | 26651 ft | 374 kts | 213° |
| 2026-05-04 12:56 | 36.40646 | -88.67682 | 26253 ft | 373 kts | 213° |
| 2026-05-04 12:56 | 36.38304 | -88.69058 | 25850 ft | 372 kts | 213° |
| 2026-05-04 12:56 | 36.35937 | -88.70449 | 25455 ft | 372 kts | 212° |
| 2026-05-04 12:57 | 36.33632 | -88.71803 | 25063 ft | 371 kts | 212° |
| 2026-05-04 12:57 | 36.31296 | -88.73172 | 24661 ft | 370 kts | 212° |
| 2026-05-04 12:57 | 36.28969 | -88.74536 | 24257 ft | 368 kts | 212° |
| 2026-05-04 12:57 | 36.26653 | -88.75891 | 23875 ft | 367 kts | 212° |
| 2026-05-04 12:58 | 36.24355 | -88.77234 | 23499 ft | 364 kts | 212° |
| 2026-05-04 12:58 | 36.22062 | -88.78572 | 23054 ft | 362 kts | 212° |
| 2026-05-04 12:58 | 36.19795 | -88.79895 | 22661 ft | 359 kts | 212° |
| 2026-05-04 12:58 | 36.17550 | -88.81205 | 22309 ft | 355 kts | 212° |
| 2026-05-04 12:59 | 36.15318 | -88.82506 | 21938 ft | 352 kts | 212° |
| 2026-05-04 12:59 | 36.13107 | -88.83796 | 21591 ft | 351 kts | 212° |
| 2026-05-04 12:59 | 36.10933 | -88.85064 | 21238 ft | 349 kts | 212° |
| 2026-05-04 12:59 | 36.08737 | -88.86344 | 20882 ft | 348 kts | 211° |
| 2026-05-04 13:00 | 36.06546 | -88.87621 | 20533 ft | 347 kts | 211° |
| 2026-05-04 13:00 | 36.04369 | -88.88888 | 20194 ft | 346 kts | 211° |
| 2026-05-04 13:00 | 36.02925 | -88.89728 | 19957 ft | 344 kts | 211° |
| 2026-05-04 13:00 | 36.00760 | -88.90986 | 19622 ft | 342 kts | 211° |
| 2026-05-04 13:01 | 35.98609 | -88.92235 | 19278 ft | 340 kts | 211° |
| 2026-05-04 13:01 | 35.96470 | -88.93477 | 18921 ft | 338 kts | 211° |
| 2026-05-04 13:01 | 35.94343 | -88.94712 | 18589 ft | 337 kts | 210° |
| 2026-05-04 13:01 | 35.92227 | -88.95939 | 18250 ft | 335 kts | 210° |
| 2026-05-04 13:02 | 35.90114 | -88.97163 | 17872 ft | 334 kts | 210° |
| 2026-05-04 13:02 | 35.88045 | -88.98362 | 17518 ft | 332 kts | 210° |
| 2026-05-04 13:02 | 35.85962 | -88.99568 | 17166 ft | 330 kts | 210° |
| 2026-05-04 13:02 | 35.83887 | -89.00769 | 16833 ft | 328 kts | 210° |
| 2026-05-04 13:03 | 35.81830 | -89.01958 | 16514 ft | 326 kts | 210° |
| 2026-05-04 13:03 | 35.79782 | -89.03143 | 16183 ft | 324 kts | 209° |
| 2026-05-04 13:03 | 35.77752 | -89.04315 | 15862 ft | 322 kts | 209° |
| 2026-05-04 13:03 | 35.75727 | -89.05483 | 15537 ft | 320 kts | 209° |
| 2026-05-04 13:04 | 35.73719 | -89.06652 | 15192 ft | 315 kts | 211° |
| 2026-05-04 13:04 | 35.72002 | -89.08220 | 14863 ft | 303 kts | 230° |
| 2026-05-04 13:04 | 35.70589 | -89.10136 | 14598 ft | 311 kts | 230° |
| 2026-05-04 13:04 | 35.69102 | -89.12110 | 14277 ft | 317 kts | 229° |
| 2026-05-04 13:05 | 35.67591 | -89.14087 | 13953 ft | 317 kts | 229° |
| 2026-05-04 13:05 | 35.66080 | -89.16049 | 13606 ft | 314 kts | 229° |
| 2026-05-04 13:05 | 35.64586 | -89.17984 | 13264 ft | 309 kts | 228° |
| 2026-05-04 13:05 | 35.63118 | -89.19881 | 12940 ft | 304 kts | 228° |
| 2026-05-04 13:06 | 35.61670 | -89.21750 | 12622 ft | 301 kts | 228° |
| 2026-05-04 13:06 | 35.60230 | -89.23609 | 12327 ft | 299 kts | 228° |
| 2026-05-04 13:06 | 35.58871 | -89.25529 | 12043 ft | 297 kts | 231° |
| 2026-05-04 13:06 | 35.57572 | -89.27495 | 11729 ft | 296 kts | 232° |
| 2026-05-04 13:07 | 35.56283 | -89.29459 | 11427 ft | 294 kts | 231° |
| 2026-05-04 13:07 | 35.54995 | -89.31409 | 11138 ft | 294 kts | 231° |
| 2026-05-04 13:07 | 35.53712 | -89.33339 | 10862 ft | 289 kts | 231° |
| 2026-05-04 13:07 | 35.52451 | -89.35223 | 10551 ft | 284 kts | 230° |
| 2026-05-04 13:08 | 35.51203 | -89.37082 | 10274 ft | 279 kts | 230° |
| 2026-05-04 13:08 | 35.49996 | -89.38882 | 10008 ft | 274 kts | 230° |
| 2026-05-04 13:08 | 35.48787 | -89.40628 | 9806 ft | 264 kts | 229° |
| 2026-05-04 13:08 | 35.47594 | -89.42311 | 9520 ft | 258 kts | 228° |
| 2026-05-04 13:09 | 35.46426 | -89.43942 | 9301 ft | 250 kts | 228° |
| 2026-05-04 13:09 | 35.45288 | -89.45530 | 9080 ft | 247 kts | 228° |
| 2026-05-04 13:09 | 35.44150 | -89.47120 | 8883 ft | 248 kts | 228° |
| 2026-05-04 13:09 | 35.43015 | -89.48711 | 8676 ft | 247 kts | 229° |
| 2026-05-04 13:10 | 35.41889 | -89.50305 | 8450 ft | 247 kts | 229° |
| 2026-05-04 13:10 | 35.40769 | -89.51901 | 8260 ft | 246 kts | 229° |
| 2026-05-04 13:10 | 35.39652 | -89.53488 | 8055 ft | 245 kts | 229° |
| 2026-05-04 13:10 | 35.38550 | -89.55047 | 7852 ft | 245 kts | 229° |
| 2026-05-04 13:11 | 35.37439 | -89.56628 | 7651 ft | 244 kts | 229° |
| 2026-05-04 13:11 | 35.36332 | -89.58198 | 7431 ft | 244 kts | 229° |
| 2026-05-04 13:11 | 35.35230 | -89.59774 | 7248 ft | 243 kts | 230° |
| 2026-05-04 13:11 | 35.34143 | -89.61358 | 7040 ft | 242 kts | 230° |
| 2026-05-04 13:12 | 35.33063 | -89.62939 | 6853 ft | 242 kts | 230° |
| 2026-05-04 13:12 | 35.31987 | -89.64515 | 6647 ft | 241 kts | 230° |
| 2026-05-04 13:12 | 35.30909 | -89.66086 | 6453 ft | 240 kts | 230° |
| 2026-05-04 13:12 | 35.29839 | -89.67657 | 6255 ft | 239 kts | 230° |
| 2026-05-04 13:13 | 35.28779 | -89.69219 | 6052 ft | 238 kts | 231° |
| 2026-05-04 13:13 | 35.27732 | -89.70785 | 5869 ft | 237 kts | 231° |
| 2026-05-04 13:13 | 35.26711 | -89.72361 | 5678 ft | 235 kts | 233° |
| 2026-05-04 13:13 | 35.25727 | -89.73953 | 5503 ft | 234 kts | 233° |
| 2026-05-04 13:14 | 35.24755 | -89.75542 | 5313 ft | 231 kts | 234° |
| 2026-05-04 13:14 | 35.24113 | -89.77256 | 5083 ft | 224 kts | 265° |
| 2026-05-04 13:14 | 35.24171 | -89.79148 | 4933 ft | 224 kts | 270° |
| 2026-05-04 13:14 | 35.24215 | -89.81082 | 4742 ft | 230 kts | 269° |
| 2026-05-04 13:15 | 35.24234 | -89.83040 | 4531 ft | 230 kts | 269° |
| 2026-05-04 13:15 | 35.24250 | -89.84987 | 4323 ft | 228 kts | 269° |
| 2026-05-04 13:15 | 35.24261 | -89.86913 | 4139 ft | 225 kts | 268° |
| 2026-05-04 13:15 | 35.24271 | -89.88823 | 3941 ft | 223 kts | 268° |
| 2026-05-04 13:16 | 35.24278 | -89.90710 | 3767 ft | 221 kts | 268° |
| 2026-05-04 13:16 | 35.24285 | -89.92581 | 3580 ft | 219 kts | 269° |
| 2026-05-04 13:16 | 35.24282 | -89.94436 | 3394 ft | 215 kts | 264° |
| 2026-05-04 13:16 | 35.23796 | -89.96084 | 3234 ft | 205 kts | 232° |
| 2026-05-04 13:17 | 35.22622 | -89.96994 | 3104 ft | 198 kts | 202° |
| 2026-05-04 13:17 | 35.21350 | -89.97373 | 3075 ft | 185 kts | 200° |
| 2026-05-04 13:17 | 35.20115 | -89.97609 | 2980 ft | 174 kts | 194° |
| 2026-05-04 13:17 | 35.18909 | -89.97764 | 2890 ft | 178 kts | 193° |
| 2026-05-04 13:18 | 35.17677 | -89.97849 | 2635 ft | 175 kts | 189° |
| 2026-05-04 13:18 | 35.16484 | -89.97846 | 2429 ft | 168 kts | 189° |
| 2026-05-04 13:18 | 35.15370 | -89.97823 | 2214 ft | 151 kts | 188° |
| 2026-05-04 13:18 | 35.14363 | -89.97804 | 2026 ft | 142 kts | 189° |
| 2026-05-04 13:19 | 35.13387 | -89.97783 | 1850 ft | 139 kts | 189° |
| 2026-05-04 13:19 | 35.12414 | -89.97764 | 1680 ft | 141 kts | 189° |
| 2026-05-04 13:19 | 35.11414 | -89.97745 | 1464 ft | 144 kts | 187° |
| 2026-05-04 13:19 | 35.10424 | -89.97723 | 1278 ft | 145 kts | 186° |
| 2026-05-04 13:20 | 35.09418 | -89.97701 | 1086 ft | 144 kts | 184° |
| 2026-05-04 13:20 | 35.08411 | -89.97680 | 905 ft | 144 kts | 182° |
| 2026-05-04 13:20 | 35.07398 | -89.97657 | 730 ft | 149 kts | 179° |
| 2026-05-04 13:20 | 35.06378 | -89.97646 | 517 ft | 144 kts | 180° |
| 2026-05-04 13:21 | 35.05399 | -89.97612 | 356 ft | 139 kts | 180° |
| 2026-05-04 13:21 | 35.04512 | -89.97597 | 327 ft | 109 kts | 179° |
| 2026-05-04 13:21 | 35.03928 | -89.97591 | 327 ft | 58 kts | 180° |
| 2026-05-04 13:21 | 35.03580 | -89.97578 | 324 ft | 47 kts | 178° |
| 2026-05-04 13:22 | 35.03322 | -89.97579 | 325 ft | 28 kts | 188° |
| 2026-05-04 13:22 | 35.03224 | -89.97689 | 329 ft | 16 kts | 277° |
| 2026-05-04 13:22 | 35.03316 | -89.97725 | 328 ft | 15 kts | 358° |
| 2026-05-04 13:22 | 35.03418 | -89.97728 | 329 ft | 15 kts | 358° |
| 2026-05-04 13:23 | 35.03520 | -89.97730 | 328 ft | 15 kts | 359° |
| 2026-05-04 13:23 | 35.03622 | -89.97732 | 327 ft | 15 kts | 359° |
| 2026-05-04 13:23 | 35.03724 | -89.97733 | 330 ft | 15 kts | 359° |
| 2026-05-04 13:23 | 35.03825 | -89.97735 | 330 ft | 15 kts | 359° |
| 2026-05-04 13:24 | 35.03927 | -89.97736 | 330 ft | 15 kts | 360° |
| 2026-05-04 13:24 | 35.04029 | -89.97738 | 331 ft | 15 kts | 359° |
| 2026-05-04 13:24 | 35.04131 | -89.97741 | 331 ft | 15 kts | 359° |
| 2026-05-04 13:25 | 35.04333 | -89.97747 | 331 ft | 15 kts | 359° |
| 2026-05-04 13:25 | 35.04435 | -89.97750 | 331 ft | 15 kts | 359° |
| 2026-05-04 13:25 | 35.04537 | -89.97753 | 329 ft | 15 kts | 359° |
| 2026-05-04 13:25 | 35.04639 | -89.97756 | 330 ft | 15 kts | 358° |
| 2026-05-04 13:26 | 35.04741 | -89.97757 | 330 ft | 15 kts | 359° |
| 2026-05-04 13:26 | 35.04843 | -89.97758 | 330 ft | 15 kts | 359° |
| 2026-05-04 13:26 | 35.04945 | -89.97759 | 330 ft | 15 kts | 359° |
| 2026-05-04 13:26 | 35.05047 | -89.97760 | 327 ft | 15 kts | 359° |
| 2026-05-04 13:27 | 35.05149 | -89.97762 | 328 ft | 15 kts | 359° |
| 2026-05-04 13:27 | 35.05251 | -89.97764 | 330 ft | 15 kts | 359° |
| 2026-05-04 13:27 | 35.05354 | -89.97769 | 331 ft | 15 kts | 355° |
| 2026-05-04 13:27 | 35.05455 | -89.97780 | 331 ft | 15 kts | 355° |
| 2026-05-04 13:28 | 35.05558 | -89.97786 | 332 ft | 15 kts | 357° |
| 2026-05-04 13:28 | 35.05658 | -89.97789 | 332 ft | 15 kts | 0° |
| 2026-05-04 13:28 | 35.05761 | -89.97786 | 333 ft | 15 kts | 1° |
| 2026-05-04 13:28 | 35.05863 | -89.97785 | 334 ft | 15 kts | 360° |
| 2026-05-04 13:29 | 35.05969 | -89.97786 | 333 ft | 16 kts | 360° |
| 2026-05-04 13:29 | 35.06078 | -89.97787 | 333 ft | 16 kts | 360° |
| 2026-05-04 13:29 | 35.06185 | -89.97787 | 332 ft | 12 kts | 359° |
| 2026-05-04 13:29 | 35.06250 | -89.97787 | 332 ft | 7 kts | 7° |
| 2026-05-04 13:30 | 35.06271 | -89.97733 | 333 ft | 8 kts | 91° |
| 2026-05-04 13:30 | 35.06271 | -89.97716 | 332 ft | 0 kts | 90° |